< < Back
Terminal Aerodrome Forecast


Current Version              Previous Versions:   1  2  3  4  5  6  7  8  9  

Terminal Aerodrome Forecast

262
FTUS42 KTAE 270500
TAFVLD
TAF
KVLD 270520Z 2706/2806 04004KT P6SM SCT060
      TEMPO 2708/2712 4SM BR=



Latest METAR

850
SAUS70 KWBC 271900 RRI
MTRVLD
METAR KVLD 271853Z 02003KT 10SM SCT055 31/16 A3001 RMK AO2 SLP167
T03060161


USA.gov is the U.S. government's official web portal to all federal, state and local government web resources and services.